Shorewood, Minnesota
Current Conditions -  °F | °C
As of 4:23 PM on Monday 22 Dec 2014 (Local Time) from KFCM Reporting Station
Light Rain Light Rain  
Wind Chill: 30°   Ceiling: 1000
Heat Index: 37°   Visibility: 2.5mi
Dew Point: 34°   Wind: 10mph
Humidity: 89%   Direction: 100°E
Pressure: 29.58"   Gusts: NA
Location:  44.9465°N, 93.6803°W
Report Text: KFCM 222223Z 10009KT 2 1/2SM -RA BR OVC010 03/01 A2958 RMK AO2 CIG 007V013 P0000 T00280011
Loading
Personal Weather Stations






























Interactive Weather Map New forecast layout! Learn more

10-Day Weather Forecast

Advertisements
Track Severe Weather on mobile